createdAt,value
2023-05-01T00:01:30.819Z,5.43
2023-05-01T00:03:57.487Z,6.03
2023-05-01T00:06:24.217Z,6.90
2023-05-01T00:08:50.706Z,6.53
2023-05-01T00:11:17.246Z,5.97
2023-05-01T00:13:43.796Z,6.20
2023-05-01T00:16:12.221Z,6.40
2023-05-01T00:18:38.973Z,6.27
2023-05-01T00:21:05.567Z,6.03
2023-05-01T00:23:32.095Z,6.90
2023-05-01T00:25:58.575Z,6.00
2023-05-01T00:28:25.083Z,6.57
2023-05-01T00:30:51.575Z,6.00
2023-05-01T00:33:18.296Z,6.83
2023-05-01T00:35:45.314Z,6.10
2023-05-01T00:38:12.606Z,6.37
2023-05-01T00:40:46.550Z,6.23
2023-05-01T00:43:13.587Z,6.20
2023-05-01T00:45:43.870Z,6.10
2023-05-01T00:48:10.934Z,6.00
2023-05-01T00:50:38.708Z,6.03
2023-05-01T00:53:05.500Z,6.07
2023-05-01T00:55:35.569Z,5.93
2023-05-01T00:58:02.930Z,6.50
2023-05-01T01:00:29.511Z,5.83
2023-05-01T01:02:56.421Z,5.83
2023-05-01T01:05:27.485Z,6.10
2023-05-01T01:08:33.870Z,5.80
2023-05-01T01:11:36.214Z,5.90
2023-05-01T01:14:19.605Z,6.20
2023-05-01T01:17:03.938Z,6.07
2023-05-01T01:20:25.702Z,6.30
2023-05-01T01:24:56.804Z,6.30
2023-05-01T01:29:50.776Z,6.43
2023-05-01T01:33:35.687Z,5.77
2023-05-01T01:36:18.363Z,5.03
2023-05-01T01:39:07.021Z,5.80
2023-05-01T01:41:36.041Z,6.37
2023-05-01T01:45:11.549Z,6.07
2023-05-01T01:47:42.096Z,5.90
2023-05-01T01:50:12.122Z,6.40
2023-05-01T01:52:44.644Z,6.03
2023-05-01T01:55:14.429Z,6.00
2023-05-01T01:57:44.197Z,5.83
2023-05-01T02:00:13.850Z,6.63
2023-05-01T02:02:42.370Z,5.63
2023-05-01T02:05:13.710Z,5.80
2023-05-01T02:07:42.656Z,6.23
2023-05-01T02:10:12.970Z,6.43
2023-05-01T02:12:42.243Z,5.77
2023-05-01T02:15:10.955Z,6.07
2023-05-01T02:17:40.403Z,5.53
2023-05-01T02:20:11.921Z,5.73
2023-05-01T02:22:40.406Z,5.43
2023-05-01T02:25:11.495Z,4.90
2023-05-01T02:27:52.263Z,5.30
2023-05-01T02:30:19.168Z,5.87
2023-05-01T02:32:45.861Z,5.50
2023-05-01T02:35:12.425Z,5.77
2023-05-01T02:37:39.528Z,5.63
2023-05-01T02:40:07.366Z,6.00
2023-05-01T02:42:35.241Z,5.43
2023-05-01T02:45:07.069Z,6.60
2023-05-01T02:47:40.688Z,6.50
2023-05-01T02:50:09.308Z,7.00
2023-05-01T02:52:37.469Z,5.93
2023-05-01T02:55:04.805Z,5.50
2023-05-01T02:57:33.698Z,5.50
2023-05-01T03:00:00.328Z,5.53
2023-05-01T03:02:26.868Z,5.20
2023-05-01T03:04:53.381Z,5.13
2023-05-01T03:07:19.856Z,5.67
2023-05-01T03:09:46.346Z,5.57
2023-05-01T03:12:12.837Z,6.07
2023-05-01T03:14:39.420Z,6.30
2023-05-01T03:17:06.324Z,6.40
2023-05-01T03:19:33.465Z,6.27
2023-05-01T03:21:59.973Z,5.43
2023-05-01T03:24:26.448Z,5.20
2023-05-01T03:26:52.947Z,5.50
2023-05-01T03:29:19.447Z,4.80
2023-05-01T03:31:45.995Z,4.87
2023-05-01T03:34:12.519Z,5.10
2023-05-01T03:36:39.042Z,5.60
2023-05-01T03:39:07.841Z,5.83
2023-05-01T03:41:34.369Z,5.60
2023-05-01T03:44:00.844Z,5.50
2023-05-01T03:46:27.478Z,6.03
2023-05-01T03:48:54.024Z,6.33
2023-05-01T03:51:20.534Z,6.50
2023-05-01T03:53:47.011Z,5.57
2023-05-01T03:56:13.573Z,6.30
2023-05-01T03:58:40.290Z,6.40
2023-05-01T04:01:06.809Z,6.83
2023-05-01T04:03:33.342Z,6.43
2023-05-01T04:05:59.918Z,6.50
2023-05-01T04:08:26.481Z,6.77
2023-05-01T04:10:52.990Z,6.57
2023-05-01T04:13:19.559Z,6.97
2023-05-01T04:15:46.282Z,6.07
2023-05-01T04:18:12.882Z,5.93
2023-05-01T04:20:42.106Z,5.90
2023-05-01T04:23:08.906Z,6.77
2023-05-01T04:25:37.048Z,5.63
2023-05-01T04:28:03.871Z,5.83
2023-05-01T04:30:31.195Z,5.80
2023-05-01T04:32:57.926Z,6.27
2023-05-01T04:35:24.954Z,6.17
2023-05-01T04:37:51.703Z,5.97
2023-05-01T04:40:18.176Z,6.10
2023-05-01T04:42:45.280Z,5.73
2023-05-01T04:45:11.811Z,5.80
2023-05-01T04:47:38.330Z,6.67
2023-05-01T04:50:05.954Z,7.10
2023-05-01T04:52:32.447Z,7.10
2023-05-01T04:54:58.960Z,7.70
2023-05-01T04:57:25.422Z,7.03
2023-05-01T04:59:51.932Z,6.87
2023-05-01T05:02:18.621Z,7.93
2023-05-01T05:04:45.137Z,7.97
2023-05-01T05:07:12.241Z,8.90
2023-05-01T05:09:38.779Z,7.10
2023-05-01T05:12:05.517Z,7.77
2023-05-01T05:14:32.008Z,8.07
2023-05-01T05:16:58.765Z,7.80
2023-05-01T05:19:25.624Z,7.20
2023-05-01T05:21:52.151Z,7.07
2023-05-01T05:24:18.624Z,7.43
2023-05-01T05:26:45.136Z,7.20
2023-05-01T05:29:11.610Z,6.50
2023-05-01T05:31:38.267Z,6.20
2023-05-01T05:34:04.789Z,6.93
2023-05-01T05:36:31.599Z,6.60
2023-05-01T05:38:59.181Z,7.03
2023-05-01T05:41:26.312Z,6.67
2023-05-01T05:43:53.584Z,6.27
2023-05-01T05:46:20.197Z,6.67
2023-05-01T05:48:46.721Z,6.80
2023-05-01T05:51:13.317Z,6.27
2023-05-01T05:53:39.786Z,6.43
2023-05-01T05:56:07.014Z,6.53
2023-05-01T05:58:33.525Z,6.40
2023-05-01T06:01:00.297Z,6.00
2023-05-01T06:03:27.003Z,6.07
2023-05-01T06:05:53.880Z,6.43
2023-05-01T06:08:21.603Z,6.97
2023-05-01T06:10:48.114Z,7.03
2023-05-01T06:13:15.194Z,6.77
2023-05-01T06:15:42.372Z,6.73
2023-05-01T06:18:09.316Z,6.43
2023-05-01T06:20:36.228Z,6.57
2023-05-01T06:23:02.802Z,6.07
2023-05-01T06:25:29.363Z,6.40
2023-05-01T06:27:56.185Z,6.80
2023-05-01T06:30:22.714Z,7.10
2023-05-01T06:32:49.355Z,7.50
2023-05-01T06:35:16.159Z,7.17
2023-05-01T06:37:42.644Z,8.87
2023-05-01T06:40:11.878Z,9.90
2023-05-01T06:42:39.176Z,9.90
2023-05-01T06:45:07.383Z,11.27
2023-05-01T06:47:34.006Z,10.97
2023-05-01T06:50:02.352Z,10.23
2023-05-01T06:52:30.319Z,9.20
2023-05-01T06:54:56.811Z,7.60
2023-05-01T06:57:23.384Z,7.00
2023-05-01T06:59:49.835Z,6.10
2023-05-01T07:02:16.370Z,6.07
2023-05-01T07:04:43.684Z,6.10
2023-05-01T07:07:10.627Z,6.37
2023-05-01T07:09:37.991Z,6.40
2023-05-01T07:12:06.047Z,6.10
2023-05-01T07:14:34.996Z,6.85
2023-05-01T07:17:01.931Z,6.32
2023-05-01T07:19:28.534Z,6.70
2023-05-01T07:21:55.045Z,6.32
2023-05-01T07:24:21.534Z,6.05
2023-05-01T07:26:48.052Z,5.72
2023-05-01T07:29:15.793Z,5.90
2023-05-01T07:31:43.243Z,6.00
2023-05-01T07:34:09.756Z,5.12
2023-05-01T07:36:36.218Z,5.82
2023-05-01T07:39:03.426Z,5.50
2023-05-01T07:41:30.969Z,5.37
2023-05-01T07:44:00.497Z,5.50
2023-05-01T07:46:27.128Z,5.72
2023-05-01T07:48:53.760Z,5.97
2023-05-01T07:51:20.267Z,5.90
2023-05-01T07:53:48.560Z,5.10
2023-05-01T07:56:15.472Z,5.80
2023-05-01T07:58:42.187Z,5.65
2023-05-01T08:01:08.815Z,5.07
2023-05-01T08:03:35.369Z,5.57
2023-05-01T08:06:02.030Z,6.05
2023-05-01T08:08:28.591Z,5.82
2023-05-01T08:10:55.488Z,5.37
2023-05-01T08:13:21.989Z,5.82
2023-05-01T08:15:48.913Z,6.50
2023-05-01T08:18:19.511Z,5.62
2023-05-01T08:20:49.500Z,5.82
2023-05-01T08:23:16.936Z,5.62
2023-05-01T08:25:48.878Z,5.68
2023-05-01T08:28:15.808Z,6.07
2023-05-01T08:30:43.096Z,5.90
2023-05-01T08:33:09.693Z,6.50
2023-05-01T08:35:36.228Z,5.57
2023-05-01T08:38:02.860Z,5.15
2023-05-01T08:40:35.491Z,5.22
2023-05-01T08:43:02.429Z,5.43
2023-05-01T08:45:36.820Z,5.43
2023-05-01T08:48:07.903Z,5.28
2023-05-01T08:50:38.634Z,5.50
2023-05-01T08:53:06.193Z,5.25
2023-05-01T08:55:34.503Z,5.40
2023-05-01T08:58:03.524Z,5.60
2023-05-01T09:00:33.559Z,5.62
2023-05-01T09:03:02.401Z,5.18
2023-05-01T09:05:32.471Z,5.45
2023-05-01T09:08:00.381Z,6.20
2023-05-01T09:10:27.568Z,5.45
2023-05-01T09:13:01.136Z,6.30
2023-05-01T09:15:29.657Z,5.90
2023-05-01T09:18:02.316Z,5.72
2023-05-01T09:20:30.987Z,6.18
2023-05-01T09:22:57.595Z,5.37
2023-05-01T09:25:24.123Z,5.90
2023-05-01T09:27:51.450Z,6.50
2023-05-01T09:30:32.706Z,6.28
2023-05-01T09:33:17.950Z,6.25
2023-05-01T09:35:56.394Z,5.47
2023-05-01T09:38:26.307Z,5.25
2023-05-01T09:40:55.797Z,5.70
2023-05-01T09:43:29.619Z,5.03
2023-05-01T09:46:08.787Z,5.82
2023-05-01T09:48:36.704Z,5.47
2023-05-01T09:53:38.377Z,4.65
2023-05-01T09:56:05.845Z,5.35
2023-05-01T09:58:32.357Z,5.00
2023-05-01T10:00:59.565Z,4.95
2023-05-01T10:03:26.494Z,4.47
2023-05-01T10:05:55.987Z,3.95
2023-05-01T10:08:23.390Z,3.80
2023-05-01T10:11:05.234Z,4.50
2023-05-01T10:13:31.747Z,3.65
2023-05-01T10:16:00.628Z,3.62
2023-05-01T10:18:29.866Z,4.60
2023-05-01T10:20:56.726Z,4.00
2023-05-01T10:23:25.047Z,4.10
2023-05-01T10:25:53.150Z,4.03
2023-05-01T10:28:24.535Z,4.25
2023-05-01T10:30:52.133Z,4.35
2023-05-01T10:33:18.857Z,4.10
2023-05-01T10:35:56.027Z,4.43
2023-05-01T10:38:33.794Z,4.12
2023-05-01T10:41:00.518Z,4.07
2023-05-01T10:43:29.455Z,5.37
2023-05-01T10:47:48.103Z,4.40
2023-05-01T10:50:15.710Z,4.35
2023-05-01T10:55:53.307Z,4.40
2023-05-01T11:01:26.226Z,4.62
2023-05-01T11:03:52.760Z,4.78
2023-05-01T11:06:19.373Z,5.03
2023-05-01T11:08:46.560Z,4.93
2023-05-01T11:12:15.320Z,4.55
2023-05-01T11:16:45.239Z,4.85
2023-05-01T11:20:45.635Z,5.12
2023-05-01T11:23:17.286Z,5.30
2023-05-01T11:25:46.563Z,4.85
2023-05-01T11:28:20.809Z,5.20
2023-05-01T11:30:47.694Z,5.03
2023-05-01T11:33:21.502Z,5.25
2023-05-01T11:35:57.769Z,5.12
2023-05-01T11:38:24.303Z,4.93
2023-05-01T11:41:00.448Z,5.20
2023-05-01T11:43:27.098Z,4.57
2023-05-01T11:45:54.431Z,4.85
2023-05-01T11:48:21.609Z,4.82
2023-05-01T11:50:48.186Z,4.50
2023-05-01T11:53:15.255Z,5.18
2023-05-01T11:55:41.746Z,4.55
2023-05-01T11:58:08.414Z,5.12
2023-05-01T12:00:37.808Z,4.30
2023-05-01T12:03:10.698Z,4.62
2023-05-01T12:05:44.630Z,4.82
2023-05-01T12:08:20.139Z,4.43
2023-05-01T12:10:51.255Z,4.35
2023-05-01T12:13:18.972Z,5.07
2023-05-01T12:15:47.883Z,5.22
2023-05-01T12:18:16.564Z,4.57
2023-05-01T12:20:52.308Z,4.50
2023-05-01T12:23:29.602Z,4.93
2023-05-01T12:25:56.115Z,4.53
2023-05-01T12:28:23.053Z,4.57
2023-05-01T12:30:49.557Z,4.22
2023-05-01T12:33:19.298Z,4.10
2023-05-01T12:35:49.813Z,4.43
2023-05-01T12:38:22.979Z,4.25
2023-05-01T12:40:57.810Z,4.15
2023-05-01T12:43:33.796Z,4.18
2023-05-01T12:46:02.459Z,4.50
2023-05-01T12:48:30.974Z,4.18
2023-05-01T12:50:57.701Z,4.50
2023-05-01T12:53:26.954Z,4.82
2023-05-01T12:55:56.760Z,3.85
2023-05-01T12:58:33.772Z,4.25
2023-05-01T13:01:00.330Z,4.03
2023-05-01T13:03:29.921Z,3.78
2023-05-01T13:06:05.126Z,4.07
2023-05-01T13:08:36.915Z,3.90
2023-05-01T13:11:12.603Z,4.72
2023-05-01T13:13:39.876Z,4.32
2023-05-01T13:16:15.321Z,4.20
2023-05-01T13:18:47.982Z,4.07
2023-05-01T13:21:22.010Z,3.95
2023-05-01T13:24:00.497Z,3.87
2023-05-01T13:26:34.488Z,3.95
2023-05-01T13:29:03.049Z,4.75
2023-05-01T13:31:30.045Z,4.30
2023-05-01T13:33:59.276Z,4.68
2023-05-01T13:36:31.502Z,3.97
2023-05-01T13:38:58.705Z,4.72
2023-05-01T13:41:26.876Z,4.80
2023-05-01T13:43:55.761Z,4.40
2023-05-01T13:46:24.991Z,4.75
2023-05-01T13:48:51.971Z,4.47
2023-05-01T13:51:25.680Z,4.30
2023-05-01T13:53:55.461Z,4.45
2023-05-01T13:56:22.241Z,4.78
2023-05-01T13:58:49.638Z,4.97
2023-05-01T14:01:19.805Z,3.97
2023-05-01T14:03:47.707Z,4.32
2023-05-01T14:06:20.416Z,4.75
2023-05-01T14:08:48.418Z,4.47
2023-05-01T14:11:15.278Z,4.57
2023-05-01T14:13:45.136Z,4.12
2023-05-01T14:16:30.774Z,4.68
2023-05-01T14:18:57.873Z,4.40
2023-05-01T14:21:27.424Z,4.10
2023-05-01T14:23:55.099Z,4.25
2023-05-01T14:26:23.125Z,4.03
2023-05-01T14:28:49.674Z,4.12
2023-05-01T14:31:28.071Z,4.32
2023-05-01T14:34:04.293Z,4.10
2023-05-01T14:36:31.901Z,4.12
2023-05-01T14:39:00.685Z,4.45
2023-05-01T14:41:28.654Z,4.12
2023-05-01T14:43:55.655Z,4.40
2023-05-01T14:46:55.682Z,4.47
2023-05-01T14:49:24.115Z,4.47
2023-05-01T14:51:51.837Z,4.00
2023-05-01T14:54:19.586Z,4.03
2023-05-01T14:56:48.467Z,3.92
2023-05-01T14:59:15.572Z,4.37
2023-05-01T15:01:43.146Z,4.50
2023-05-01T15:04:11.217Z,4.28
2023-05-01T15:06:37.919Z,4.00
2023-05-01T15:09:04.642Z,4.43
2023-05-01T15:11:31.278Z,4.07
2023-05-01T15:13:57.772Z,4.20
2023-05-01T15:16:24.388Z,4.43
2023-05-01T15:18:50.986Z,4.32
2023-05-01T15:21:17.665Z,4.53
2023-05-01T15:23:45.463Z,4.80
2023-05-01T15:26:12.020Z,4.20
2023-05-01T15:28:38.559Z,4.68
2023-05-01T15:31:05.248Z,4.12
2023-05-01T15:33:31.738Z,5.00
2023-05-01T15:35:58.266Z,4.43
2023-05-01T15:38:25.432Z,4.12
2023-05-01T15:40:51.904Z,4.07
2023-05-01T15:43:18.413Z,4.53
2023-05-01T15:45:45.041Z,4.45
2023-05-01T15:48:11.619Z,4.10
2023-05-01T15:50:38.182Z,4.80
2023-05-01T15:53:04.808Z,4.87
2023-05-01T15:55:31.436Z,4.20
2023-05-01T15:57:57.983Z,4.12
2023-05-01T16:00:24.795Z,4.18
2023-05-01T16:02:51.434Z,4.90
2023-05-01T16:05:23.868Z,4.32
2023-05-01T16:08:00.399Z,4.60
2023-05-01T16:10:26.957Z,4.78
2023-05-01T16:12:53.579Z,9.52
2023-05-01T16:15:21.923Z,4.50
2023-05-01T16:17:50.537Z,4.20
2023-05-01T16:20:17.293Z,5.15
2023-05-01T16:22:43.761Z,14.38
2023-05-01T16:25:11.525Z,7.45
2023-05-01T16:27:43.569Z,4.45
2023-05-01T16:30:13.546Z,4.40
2023-05-01T16:32:40.676Z,5.12
2023-05-01T16:35:12.024Z,6.93
2023-05-01T16:37:39.026Z,5.03
2023-05-01T16:40:08.569Z,6.40
2023-05-01T16:42:35.660Z,6.75
2023-05-01T16:45:02.188Z,5.30
2023-05-01T16:47:28.718Z,5.65
2023-05-01T16:50:00.484Z,5.85
2023-05-01T16:52:27.552Z,5.90
2023-05-01T16:54:54.052Z,5.37
2023-05-01T16:57:20.557Z,5.45
2023-05-01T16:59:47.060Z,5.00
2023-05-01T17:02:13.701Z,4.85
2023-05-01T17:04:40.414Z,4.25
2023-05-01T17:07:07.793Z,4.90
2023-05-01T17:09:34.289Z,4.97
2023-05-01T17:12:02.633Z,5.78
2023-05-01T17:14:30.266Z,4.55
2023-05-01T17:16:58.586Z,4.75
2023-05-01T17:19:25.655Z,4.30
2023-05-01T17:21:52.178Z,4.53
2023-05-01T17:24:18.646Z,4.30
2023-05-01T17:26:45.937Z,4.95
2023-05-01T17:29:12.408Z,5.10
2023-05-01T17:31:38.933Z,4.50
2023-05-01T17:34:05.435Z,5.05
2023-05-01T17:36:31.937Z,4.90
2023-05-01T17:39:00.570Z,4.68
2023-05-01T17:41:27.273Z,4.65
2023-05-01T17:43:54.478Z,4.70
2023-05-01T17:46:21.030Z,4.53
2023-05-01T17:48:47.963Z,4.82
2023-05-01T17:51:14.711Z,4.87
2023-05-01T17:53:41.897Z,5.20
2023-05-01T17:56:08.400Z,5.15
2023-05-01T17:58:34.976Z,5.05
2023-05-01T18:01:03.586Z,5.25
2023-05-01T18:03:33.435Z,5.10
2023-05-01T18:06:01.900Z,5.03
2023-05-01T18:08:28.429Z,5.03
2023-05-01T18:10:55.237Z,4.47
2023-05-01T18:13:27.062Z,4.80
2023-05-01T18:15:56.559Z,4.00
2023-05-01T18:18:23.565Z,5.03
2023-05-01T18:20:50.180Z,4.90
2023-05-01T18:23:17.896Z,5.07
2023-05-01T18:25:44.492Z,5.00
2023-05-01T18:28:10.985Z,4.93
2023-05-01T18:30:37.471Z,5.60
2023-05-01T18:33:04.031Z,5.80
2023-05-01T18:35:30.547Z,4.63
2023-05-01T18:37:57.075Z,5.77
2023-05-01T18:40:23.616Z,5.45
2023-05-01T18:42:50.364Z,5.23
2023-05-01T18:45:16.885Z,5.40
2023-05-01T18:47:43.631Z,5.87
2023-05-01T18:50:10.646Z,5.07
2023-05-01T18:52:37.294Z,5.37
2023-05-01T18:55:04.402Z,6.30
2023-05-01T18:57:31.803Z,6.57
2023-05-01T19:00:00.258Z,7.40
2023-05-01T19:02:27.016Z,8.33
2023-05-01T19:04:57.960Z,8.38
2023-05-01T19:07:27.698Z,7.93
2023-05-01T19:09:54.345Z,8.43
2023-05-01T19:12:20.843Z,8.13
2023-05-01T19:14:47.337Z,8.97
2023-05-01T19:17:13.831Z,8.30
2023-05-01T19:19:40.299Z,8.17
2023-05-01T19:22:06.778Z,7.63
2023-05-01T19:24:33.362Z,8.13
2023-05-01T19:27:00.857Z,7.00
2023-05-01T19:29:27.355Z,7.55
2023-05-01T19:31:54.424Z,7.97
2023-05-01T19:34:20.905Z,7.70
2023-05-01T19:36:47.415Z,7.27
2023-05-01T19:39:13.944Z,6.87
2023-05-01T19:41:40.443Z,7.40
2023-05-01T19:44:07.229Z,7.70
2023-05-01T19:46:33.755Z,7.57
2023-05-01T19:49:00.260Z,6.87
2023-05-01T19:51:27.455Z,6.87
2023-05-01T19:53:53.931Z,7.10
2023-05-01T19:56:20.449Z,6.93
2023-05-01T19:58:46.927Z,7.23
2023-05-01T20:01:13.632Z,6.80
2023-05-01T20:03:40.228Z,6.67
2023-05-01T20:06:06.770Z,6.17
2023-05-01T20:08:33.642Z,6.07
2023-05-01T20:11:01.107Z,6.07
2023-05-01T20:13:27.618Z,6.03
2023-05-01T20:15:54.172Z,5.70
2023-05-01T20:18:21.426Z,5.73
2023-05-01T20:20:47.941Z,6.13
2023-05-01T20:23:22.025Z,5.67
2023-05-01T20:25:52.743Z,5.70
2023-05-01T20:28:19.968Z,6.40
2023-05-01T20:30:48.277Z,6.07
2023-05-01T20:33:16.372Z,5.90
2023-05-01T20:35:44.301Z,5.60
2023-05-01T20:38:10.824Z,6.03
2023-05-01T20:40:41.611Z,6.27
2023-05-01T20:43:08.274Z,6.03
2023-05-01T20:45:34.799Z,5.70
2023-05-01T20:48:01.620Z,6.20
2023-05-01T20:50:28.584Z,6.07
2023-05-01T20:52:55.465Z,5.70
2023-05-01T20:55:23.026Z,6.50
2023-05-01T20:57:49.584Z,5.70
2023-05-01T21:00:16.450Z,6.10
2023-05-01T21:02:43.108Z,5.97
2023-05-01T21:05:10.081Z,6.30
2023-05-01T21:07:38.192Z,5.73
2023-05-01T21:10:11.270Z,6.10
2023-05-01T21:12:37.820Z,6.12
2023-05-01T21:15:05.515Z,5.77
2023-05-01T21:17:35.014Z,6.03
2023-05-01T21:20:08.859Z,6.13
2023-05-01T21:22:36.158Z,6.00
2023-05-01T21:25:02.858Z,5.60
2023-05-01T21:27:29.331Z,5.82
2023-05-01T21:30:01.242Z,5.80
2023-05-01T21:32:40.795Z,5.70
2023-05-01T21:35:09.174Z,5.97
2023-05-01T21:37:36.409Z,5.43
2023-05-01T21:40:06.570Z,5.83
2023-05-01T21:42:38.760Z,5.20
2023-05-01T21:45:11.843Z,6.00
2023-05-01T21:47:41.599Z,6.87
2023-05-01T21:50:11.916Z,5.97
2023-05-01T21:52:38.870Z,6.10
2023-05-01T21:55:08.881Z,8.37
2023-05-01T21:57:39.942Z,6.60
2023-05-01T22:00:10.798Z,5.60
2023-05-01T22:02:42.796Z,5.93
2023-05-01T22:05:10.716Z,6.60
2023-05-01T22:07:41.405Z,6.37
2023-05-01T22:10:16.272Z,5.93
2023-05-01T22:12:43.913Z,6.00
2023-05-01T22:15:12.807Z,5.83
2023-05-01T22:17:40.314Z,6.27
2023-05-01T22:20:11.087Z,6.07
2023-05-01T22:22:39.654Z,6.30
2023-05-01T22:25:07.528Z,6.63
2023-05-01T22:27:34.420Z,6.87
2023-05-01T22:30:01.836Z,6.63
2023-05-01T22:32:28.583Z,6.17
2023-05-01T22:34:55.152Z,6.57
2023-05-01T22:37:21.767Z,6.50
2023-05-01T22:39:48.329Z,6.60
2023-05-01T22:42:14.822Z,6.00
2023-05-01T22:44:41.314Z,6.07
2023-05-01T22:47:07.824Z,6.47
2023-05-01T22:49:34.331Z,6.50
2023-05-01T22:52:01.812Z,6.60
2023-05-01T22:54:28.282Z,6.60
2023-05-01T22:56:55.492Z,5.83
2023-05-01T22:59:22.095Z,6.10
2023-05-01T23:01:48.700Z,5.63
2023-05-01T23:04:15.474Z,6.20
2023-05-01T23:06:42.445Z,5.83
2023-05-01T23:09:09.013Z,5.07
2023-05-01T23:11:35.543Z,6.33
2023-05-01T23:14:02.158Z,5.67
2023-05-01T23:16:38.784Z,5.33
2023-05-01T23:19:07.451Z,5.70
2023-05-01T23:21:33.950Z,6.00
2023-05-01T23:24:03.792Z,6.10
2023-05-01T23:26:32.145Z,6.27
2023-05-01T23:28:59.336Z,6.93
2023-05-01T23:31:26.699Z,6.73
2023-05-01T23:33:54.199Z,6.20
2023-05-01T23:36:21.244Z,6.10
2023-05-01T23:38:48.084Z,6.80
2023-05-01T23:41:15.589Z,6.40
2023-05-01T23:43:45.606Z,5.70
2023-05-01T23:46:12.255Z,5.33
2023-05-01T23:48:40.324Z,5.87
2023-05-01T23:51:06.952Z,5.30
2023-05-01T23:53:33.423Z,5.13
2023-05-01T23:55:59.902Z,5.70
2023-05-01T23:58:26.412Z,5.77
